Time;durP1;ratioP1;P1;durP2;ratioP2;P2;SDS_P1;SDS_P2;PMS_P1;PMS_P2;Temp;Humidity;BMP_temperature;BMP_pressure;BME280_temperature;BME280_humidity;BME280_pressure;Samples;Min_cycle;Max_cycle;Signal;HPM_P1;HPM_P2
2022/11/22 00:00:28;;;;;;;16.73;11.93;;;;;;;10.07;85.35;100073.19;5052506;28;20472;-77
2022/11/22 00:02:53;;;;;;;16.75;12.18;;;;;;;10.03;85.29;100061.00;5053370;28;20033;-77
2022/11/22 00:05:19;;;;;;;17.15;11.63;;;;;;;10.23;85.00;100075.41;5053112;28;20142;-77
2022/11/22 00:07:45;;;;;;;19.58;11.82;;;;;;;10.24;85.03;100083.31;5052886;28;20034;-78
2022/11/22 00:10:11;;;;;;;17.00;12.50;;;;;;;10.20;85.14;100083.75;5052497;28;20029;-77
2022/11/22 00:12:39;;;;;;;16.30;12.05;;;;;;;10.27;86.01;100096.50;5053172;28;20024;-77
2022/11/22 00:15:05;;;;;;;17.75;11.80;;;;;;;10.20;85.90;100089.97;5052624;28;20049;-77
2022/11/22 00:17:31;;;;;;;18.05;13.00;;;;;;;10.15;85.86;100094.06;5051165;28;20029;-77
2022/11/22 00:19:56;;;;;;;19.00;12.45;;;;;;;10.22;86.08;100109.50;5052211;28;20543;-77
2022/11/22 00:22:22;;;;;;;21.63;13.73;;;;;;;10.06;86.17;100092.16;5052149;28;20027;-77
2022/11/22 00:24:50;;;;;;;20.23;13.45;;;;;;;10.11;86.21;100100.66;5051950;28;20384;-77
2022/11/22 00:27:15;;;;;;;18.80;11.85;;;;;;;10.23;86.94;100105.81;5052819;28;20086;-76
2022/11/22 00:29:41;;;;;;;18.63;11.88;;;;;;;10.18;87.09;100112.59;5052228;28;20037;-78
2022/11/22 00:32:06;;;;;;;18.05;11.20;;;;;;;10.13;87.01;100098.66;5051630;28;20031;-77
2022/11/22 00:34:32;;;;;;;19.95;13.32;;;;;;;10.03;86.69;100089.72;5051906;28;20027;-76
2022/11/22 00:36:57;;;;;;;18.98;13.30;;;;;;;10.21;86.62;100107.78;5051744;28;20025;-76
2022/11/22 00:39:22;;;;;;;18.98;13.63;;;;;;;10.23;86.06;100113.88;5051941;28;20021;-79
2022/11/22 00:41:48;;;;;;;20.40;14.57;;;;;;;10.22;86.35;100119.38;5052002;28;20032;-76
2022/11/22 00:44:13;;;;;;;20.58;14.05;;;;;;;10.10;86.11;100104.31;5051774;28;20033;-77
2022/11/22 00:46:39;;;;;;;20.85;12.80;;;;;;;10.12;85.59;100108.56;5051405;28;20029;-78
2022/11/22 00:49:04;;;;;;;19.23;13.32;;;;;;;10.18;85.73;100112.59;5051609;28;20195;-78
2022/11/22 00:51:30;;;;;;;20.33;14.20;;;;;;;10.13;85.86;100125.53;5050421;28;20025;-76
2022/11/22 00:53:55;;;;;;;19.02;13.32;;;;;;;9.78;85.31;100056.09;5052356;28;20059;-77
2022/11/22 00:56:21;;;;;;;20.17;14.68;;;;;;;9.92;85.40;100065.63;5059887;28;20029;-77
2022/11/22 00:58:46;;;;;;;18.15;13.55;;;;;;;10.13;85.83;100104.94;5059555;28;20036;-76
2022/11/22 01:01:11;;;;;;;17.88;13.55;;;;;;;10.08;85.26;100106.28;5053388;28;20102;-77
2022/11/22 01:03:37;;;;;;;20.30;13.98;;;;;;;10.09;85.13;100113.38;5051443;28;20033;-77
2022/11/22 01:06:02;;;;;;;20.20;13.25;;;;;;;10.11;84.84;100125.69;5050438;28;20033;-77
2022/11/22 01:08:28;;;;;;;18.75;13.18;;;;;;;10.15;84.93;100123.63;5052345;28;20031;-76
2022/11/22 01:10:58;;;;;;;16.48;12.68;;;;;;;10.15;84.74;100118.25;5051585;28;20025;-76
2022/11/22 01:13:25;;;;;;;19.83;14.60;;;;;;;10.20;85.17;100126.75;5050086;28;20033;-78
2022/11/22 01:15:50;;;;;;;19.80;13.88;;;;;;;10.25;84.87;100129.88;5050091;28;20116;-76
2022/11/22 01:18:16;;;;;;;20.73;14.57;;;;;;;9.99;84.65;100083.78;5051532;28;20056;-76
2022/11/22 01:20:41;;;;;;;18.63;14.50;;;;;;;10.25;84.58;100129.88;5053379;28;20032;-76
2022/11/22 01:23:06;;;;;;;19.73;14.73;;;;;;;10.25;84.31;100135.25;5051775;28;20458;-77
2022/11/22 01:25:32;;;;;;;21.60;15.38;;;;;;;10.28;83.98;100129.59;5050836;28;20025;-77
2022/11/22 01:27:57;;;;;;;21.60;13.75;;;;;;;10.32;83.45;100131.03;5051204;28;20029;-76
2022/11/22 01:30:23;;;;;;;19.65;14.52;;;;;;;10.22;82.75;100114.00;5051188;28;20777;-77
2022/11/22 01:32:48;;;;;;;22.98;14.75;;;;;;;10.28;82.20;100145.72;5051187;28;20036;-76
2022/11/22 01:35:14;;;;;;;20.42;14.20;;;;;;;10.03;81.13;100108.53;5050987;28;20029;-76
2022/11/22 01:37:39;;;;;;;16.85;12.95;;;;;;;10.19;81.33;100127.72;5050967;28;20024;-77
2022/11/22 01:40:06;;;;;;;20.65;14.65;;;;;;;10.14;81.69;100135.34;5051282;28;20028;-76
2022/11/22 01:42:53;;;;;;;18.48;15.10;;;;;;;9.95;81.51;100102.97;5051210;28;20041;-76
2022/11/22 01:45:28;;;;;;;22.35;14.90;;;;;;;10.15;81.27;100129.81;5051209;28;20048;-77
2022/11/22 01:48:09;;;;;;;23.95;16.45;;;;;;;10.23;80.81;100115.72;5049567;28;20381;-76
2022/11/22 01:50:38;;;;;;;23.98;15.88;;;;;;;10.12;81.32;100099.66;5051108;28;20162;-77
2022/11/22 01:53:11;;;;;;;20.45;15.32;;;;;;;9.95;80.12;100073.41;5051413;28;20063;-76
2022/11/22 01:55:37;;;;;;;26.05;15.88;;;;;;;10.08;80.08;100108.97;5051123;28;20032;-77
2022/11/22 01:58:03;;;;;;;20.42;14.95;;;;;;;9.92;80.47;100111.28;5051279;28;20028;-77
2022/11/22 02:00:28;;;;;;;21.45;15.38;;;;;;;10.03;81.30;100130.84;5051400;28;20697;-76
2022/11/22 02:03:00;;;;;;;23.00;16.10;;;;;;;9.82;80.95;100097.81;5051068;28;20075;-77
2022/11/22 02:05:31;;;;;;;21.97;16.07;;;;;;;9.92;80.81;100114.81;5051936;28;20376;-76
2022/11/22 02:08:07;;;;;;;21.42;15.27;;;;;;;9.96;80.65;100112.72;5051109;28;20025;-78
2022/11/22 02:10:37;;;;;;;20.75;14.73;;;;;;;9.77;80.48;100100.91;5052247;28;20025;-76
2022/11/22 02:13:03;;;;;;;20.60;14.40;;;;;;;9.91;80.15;100117.66;5054300;28;20021;-76
2022/11/22 02:15:29;;;;;;;24.00;16.17;;;;;;;9.91;79.97;100112.28;5051107;28;20112;-76
2022/11/22 02:17:57;;;;;;;20.05;14.57;;;;;;;9.92;80.45;100130.09;5050290;28;20468;-76
2022/11/22 02:20:23;;;;;;;22.85;15.77;;;;;;;9.98;80.76;100134.94;5050458;28;20445;-76
2022/11/22 02:23:05;;;;;;;20.55;14.70;;;;;;;9.88;80.75;100134.88;5050441;28;20021;-76
2022/11/22 02:25:40;;;;;;;22.20;15.00;;;;;;;9.81;81.01;100110.38;5049695;28;20036;-76
2022/11/22 02:28:10;;;;;;;20.48;15.10;;;;;;;10.01;80.75;100123.91;5049558;28;20028;-76
2022/11/22 02:30:36;;;;;;;25.45;16.55;;;;;;;10.10;80.30;100126.66;5049683;28;20115;-78
2022/11/22 02:33:01;;;;;;;25.60;15.63;;;;;;;10.16;81.19;100130.66;5049550;28;20108;-77
2022/11/22 02:35:28;;;;;;;22.05;15.68;;;;;;;10.11;81.02;100132.88;5049877;28;20025;-76
2022/11/22 02:38:15;;;;;;;21.15;16.60;;;;;;;10.13;80.52;100131.78;5049843;28;20021;-77
2022/11/22 02:41:07;;;;;;;21.95;14.43;;;;;;;9.97;79.79;100136.75;5049761;28;20035;-77
2022/11/22 02:43:39;;;;;;;21.73;15.80;;;;;;;10.01;80.06;100153.47;5049705;28;20158;-76
2022/11/22 02:46:10;;;;;;;20.55;16.05;;;;;;;10.02;80.26;100165.94;5051431;28;20033;-77
2022/11/22 02:48:42;;;;;;;21.38;15.45;;;;;;;9.93;80.08;100167.56;5049735;28;20053;-76
2022/11/22 02:51:09;;;;;;;20.52;15.48;;;;;;;9.92;80.34;100162.31;5047664;28;20041;-76
2022/11/22 02:53:34;;;;;;;24.83;14.73;;;;;;;9.95;79.68;100170.97;5049744;28;20112;-77
2022/11/22 02:56:00;;;;;;;23.60;16.27;;;;;;;10.01;79.75;100174.97;5049705;28;20136;-77
2022/11/22 02:58:25;;;;;;;20.73;13.98;;;;;;;10.04;79.47;100174.69;5049673;28;20028;-77
2022/11/22 03:00:51;;;;;;;19.90;14.68;;;;;;;10.07;79.36;100179.81;5049407;28;20032;-76
2022/11/22 03:03:16;;;;;;;20.13;15.20;;;;;;;10.11;79.10;100184.78;5049726;28;20027;-76
2022/11/22 03:05:41;;;;;;;20.92;14.25;;;;;;;10.13;78.98;100179.28;5049925;28;20021;-76
2022/11/22 03:08:07;;;;;;;20.75;14.73;;;;;;;10.16;78.77;100168.28;5049352;28;20027;-77
2022/11/22 03:10:32;;;;;;;20.92;14.77;;;;;;;10.04;78.56;100159.44;5049506;28;20028;-76
2022/11/22 03:12:58;;;;;;;21.02;14.80;;;;;;;10.03;78.39;100157.72;5055589;28;20080;-76
2022/11/22 03:15:24;;;;;;;20.48;14.73;;;;;;;10.16;78.13;100157.53;5058269;28;20044;-76
2022/11/22 03:17:56;;;;;;;19.80;14.02;;;;;;;10.15;77.59;100161.22;5058244;28;20095;-75
2022/11/22 03:20:21;;;;;;;19.30;13.60;;;;;;;10.09;76.54;100170.63;5053897;28;20021;-76
2022/11/22 03:22:47;;;;;;;21.90;15.18;;;;;;;9.94;76.60;100157.69;5054428;28;20033;-77
2022/11/22 03:25:12;;;;;;;22.90;14.30;;;;;;;10.05;77.23;100176.41;5054102;28;20024;-76
2022/11/22 03:27:37;;;;;;;17.83;13.73;;;;;;;10.13;77.52;100181.97;5054166;28;20028;-77
2022/11/22 03:30:03;;;;;;;22.67;15.35;;;;;;;10.11;77.12;100176.75;5053784;28;20024;-77
2022/11/22 03:32:29;;;;;;;26.08;14.77;;;;;;;10.13;76.63;100181.97;5056029;28;20040;-78
2022/11/22 03:34:54;;;;;;;22.02;15.20;;;;;;;10.14;76.63;100175.66;5054426;28;20021;-78
2022/11/22 03:37:20;;;;;;;18.52;14.45;;;;;;;10.14;76.25;100170.28;5053257;28;20462;-78
2022/11/22 03:39:45;;;;;;;18.77;13.77;;;;;;;10.25;75.42;100178.25;5053744;28;20502;-76
2022/11/22 03:42:10;;;;;;;23.40;14.82;;;;;;;10.25;75.99;100189.00;5050649;28;20037;-79
2022/11/22 03:44:36;;;;;;;22.17;13.93;;;;;;;10.22;76.46;100189.25;5054116;28;20021;-76
2022/11/22 03:47:01;;;;;;;21.08;14.80;;;;;;;10.08;76.16;100178.81;5053915;28;20400;-77
2022/11/22 03:49:27;;;;;;;21.35;14.85;;;;;;;10.14;76.12;100194.44;5053687;28;20045;-76
2022/11/22 03:51:52;;;;;;;23.05;17.38;;;;;;;10.09;76.19;100185.91;5053322;28;20040;-78
2022/11/22 03:54:17;;;;;;;25.38;16.88;;;;;;;10.15;76.61;100185.41;5053187;28;20025;-78
2022/11/22 03:56:43;;;;;;;23.33;16.05;;;;;;;10.01;76.78;100158.84;5053989;28;20021;-77
2022/11/22 03:59:08;;;;;;;22.20;15.07;;;;;;;10.12;76.57;100178.41;5053694;28;20393;-77
2022/11/22 04:01:34;;;;;;;22.88;16.02;;;;;;;10.21;77.08;100195.63;5053451;28;20048;-76
2022/11/22 04:03:59;;;;;;;24.33;16.40;;;;;;;10.18;77.20;100198.59;5052971;28;20087;-76
2022/11/22 04:06:25;;;;;;;23.23;14.90;;;;;;;9.99;77.06;100168.88;5052654;28;20017;-76
2022/11/22 04:08:50;;;;;;;18.92;14.32;;;;;;;10.13;76.60;100217.78;5052466;28;20032;-77
2022/11/22 04:11:16;;;;;;;22.05;15.05;;;;;;;10.15;76.65;100223.03;5054406;28;20021;-76
2022/11/22 04:16:25;;;;;;;21.73;15.20;;;;;;;9.89;77.13;100193.00;5052302;28;20036;-77
2022/11/22 04:18:50;;;;;;;26.23;14.50;;;;;;;10.07;76.94;100222.78;5054633;28;20033;-76
2022/11/22 04:21:34;;;;;;;23.73;16.75;;;;;;;10.11;77.04;100235.00;5054590;28;20098;-76
2022/11/22 04:26:55;;;;;;;24.50;16.50;;;;;;;10.08;77.01;100224.50;5052351;28;20071;-76
2022/11/22 04:29:21;;;;;;;22.23;16.00;;;;;;;9.91;76.78;100219.72;5052051;28;20033;-78
2022/11/22 04:34:33;;;;;;;24.35;17.33;;;;;;;9.90;77.50;100243.06;5050408;28;20476;-76
2022/11/22 04:36:59;;;;;;;27.15;17.70;;;;;;;9.80;77.83;100208.06;5051915;28;20112;-76
2022/11/22 04:39:24;;;;;;;27.58;18.48;;;;;;;10.01;77.72;100228.69;5051937;28;20040;-76
2022/11/22 04:44:41;;;;;;;28.98;19.63;;;;;;;10.01;76.74;100236.75;5050706;28;20118;-78
2022/11/22 04:47:57;;;;;;;28.05;19.77;;;;;;;10.03;77.55;100242.88;5053471;28;20147;-78
2022/11/22 04:49:58;;;;;;;33.03;18.15;;;;;;;10.03;77.48;100238.31;5051412;28;20436;-75
2022/11/22 04:55:07;;;;;;;31.15;22.27;;;;;;;9.87;78.12;100204.84;5051033;28;20036;-75
2022/11/22 04:57:32;;;;;;;34.78;21.23;;;;;;;9.78;78.48;100196.56;5051291;28;20388;-75
2022/11/22 04:59:58;;;;;;;29.75;19.60;;;;;;;10.07;78.38;100250.50;5051033;28;20032;-75
2022/11/22 05:02:23;;;;;;;28.50;19.13;;;;;;;10.10;78.24;100238.66;5051331;28;20112;-75
2022/11/22 05:04:49;;;;;;;26.42;18.70;;;;;;;10.05;78.93;100232.81;5051136;28;20037;-77
2022/11/22 05:07:14;;;;;;;27.45;18.38;;;;;;;9.98;77.98;100218.22;5051112;28;20106;-77
2022/11/22 05:09:39;;;;;;;28.00;18.08;;;;;;;10.04;77.57;100234.66;5051891;28;20546;-76
2022/11/22 05:12:05;;;;;;;34.95;20.58;;;;;;;9.95;78.41;100246.19;5051315;28;20032;-77
2022/11/22 05:14:30;;;;;;;29.42;20.40;;;;;;;9.82;78.56;100224.88;5051118;28;20060;-78
2022/11/22 05:16:56;;;;;;;26.70;19.30;;;;;;;9.71;79.08;100222.25;5050963;28;20116;-77
2022/11/22 05:19:21;;;;;;;28.75;19.35;;;;;;;9.95;79.56;100248.00;5051322;28;20025;-76
2022/11/22 05:21:46;;;;;;;28.27;19.15;;;;;;;9.95;78.93;100261.44;5051001;28;20032;-78
2022/11/22 05:24:12;;;;;;;25.08;17.15;;;;;;;9.94;78.75;100263.28;5050825;28;20037;-77
2022/11/22 05:26:37;;;;;;;27.80;19.08;;;;;;;9.99;78.67;100262.91;5051458;28;20029;-77
2022/11/22 05:29:06;;;;;;;26.73;18.75;;;;;;;9.88;78.63;100265.66;5054134;28;20056;-77
2022/11/22 05:31:33;;;;;;;33.60;23.85;;;;;;;9.90;78.90;100269.91;5055650;28;20029;-76
2022/11/22 05:33:59;;;;;;;35.83;22.25;;;;;;;10.04;78.75;100282.16;5056284;28;20025;-77
2022/11/22 05:36:26;;;;;;;31.98;21.30;;;;;;;10.12;79.24;100268.94;5053458;28;20454;-77
2022/11/22 05:38:52;;;;;;;26.58;19.42;;;;;;;10.20;79.14;100271.84;5050483;28;20021;-76
2022/11/22 05:41:18;;;;;;;29.52;18.70;;;;;;;10.18;79.00;100273.84;5051019;28;20488;-77
2022/11/22 05:43:44;;;;;;;25.55;18.67;;;;;;;10.21;78.84;100282.47;5050609;28;20038;-76
2022/11/22 05:46:14;;;;;;;28.45;19.90;;;;;;;10.12;78.75;100275.16;5050613;28;20387;-75
2022/11/22 05:48:42;;;;;;;27.70;19.63;;;;;;;10.17;78.42;100289.09;5050291;28;20049;-75
2022/11/22 05:51:10;;;;;;;26.50;18.90;;;;;;;10.23;78.22;100298.47;5050174;28;20033;-76
2022/11/22 05:53:37;;;;;;;27.83;19.50;;;;;;;10.22;78.03;100310.19;5050087;28;20055;-75
2022/11/22 05:56:10;;;;;;;28.48;19.05;;;;;;;10.13;77.91;100306.47;5051189;28;20040;-76
2022/11/22 05:58:36;;;;;;;40.53;26.40;;;;;;;10.16;78.14;100305.34;5050744;28;20025;-77
2022/11/22 06:01:13;;;;;;;35.95;19.75;;;;;;;9.89;77.54;100272.72;5050198;28;20029;-76
2022/11/22 06:03:39;;;;;;;28.23;19.20;;;;;;;9.95;77.86;100291.00;5048903;28;20040;-76
2022/11/22 06:06:06;;;;;;;29.20;19.15;;;;;;;10.04;78.16;100325.16;5050365;28;20029;-75
2022/11/22 06:08:36;;;;;;;26.40;19.30;;;;;;;10.01;78.15;100331.63;5049769;28;20532;-75
2022/11/22 06:11:07;;;;;;;27.23;18.75;;;;;;;10.03;78.44;100337.72;5049788;28;20028;-76
2022/11/22 06:13:38;;;;;;;35.60;20.92;;;;;;;10.10;78.55;100341.59;5048544;28;20035;-76
2022/11/22 06:16:06;;;;;;;28.50;20.02;;;;;;;10.12;78.70;100344.19;5049607;28;20046;-76
2022/11/22 06:18:32;;;;;;;33.25;21.20;;;;;;;10.10;78.41;100351.50;5050016;28;20025;-75
2022/11/22 06:21:02;;;;;;;33.38;21.05;;;;;;;10.19;78.69;100340.00;5049703;28;20499;-75
2022/11/22 06:23:28;;;;;;;34.25;21.83;;;;;;;10.20;78.55;100337.22;5049532;28;20028;-77
2022/11/22 06:25:59;;;;;;;31.35;20.60;;;;;;;10.12;78.32;100309.25;5049792;28;20040;-76
2022/11/22 06:28:26;;;;;;;32.28;21.38;;;;;;;10.34;77.54;100333.34;5049656;28;20126;-76
2022/11/22 06:30:51;;;;;;;32.10;21.83;;;;;;;10.35;77.66;100335.06;5049841;28;20021;-75
2022/11/22 06:33:17;;;;;;;31.90;19.20;;;;;;;10.44;77.32;100339.66;5049696;28;20031;-77
2022/11/22 06:35:42;;;;;;;35.22;20.85;;;;;;;10.27;77.17;100311.50;5049759;28;20492;-75
2022/11/22 06:38:07;;;;;;;29.13;19.83;;;;;;;10.44;77.26;100334.25;5050313;28;20433;-75
2022/11/22 06:40:33;;;;;;;30.85;19.88;;;;;;;10.41;76.62;100339.91;5053445;28;20025;-76
2022/11/22 06:42:58;;;;;;;38.90;22.30;;;;;;;10.52;76.48;100355.97;5053476;28;20040;-76
2022/11/22 06:45:24;;;;;;;32.25;20.65;;;;;;;10.37;76.42;100325.00;5050512;28;20028;-75
2022/11/22 06:47:49;;;;;;;45.35;21.55;;;;;;;10.55;76.18;100361.06;5049312;28;20118;-76
2022/11/22 06:50:14;;;;;;;30.92;19.90;;;;;;;10.53;75.76;100365.75;5050614;28;20086;-77
2022/11/22 06:52:40;;;;;;;41.42;27.48;;;;;;;10.52;75.22;100363.19;5053511;28;20476;-75
2022/11/22 06:55:06;;;;;;;25.92;18.98;;;;;;;10.21;74.38;100327.31;5053703;28;20108;-76
2022/11/22 06:57:31;;;;;;;29.25;18.33;;;;;;;10.41;74.57;100366.78;5053224;28;20455;-76
2022/11/22 06:59:56;;;;;;;34.83;19.77;;;;;;;10.32;75.68;100338.84;5054717;28;20025;-74
2022/11/22 07:02:22;;;;;;;50.70;21.25;;;;;;;10.46;75.35;100353.78;5056669;28;20104;-75
2022/11/22 07:04:47;;;;;;;27.35;18.90;;;;;;;10.62;75.56;100374.84;5054177;28;20150;-75
2022/11/22 07:07:13;;;;;;;33.80;19.55;;;;;;;10.70;75.84;100364.31;5053771;28;20033;-76
2022/11/22 07:09:38;;;;;;;33.13;21.10;;;;;;;10.81;76.14;100357.00;5053488;28;20055;-76
2022/11/22 07:12:04;;;;;;;31.70;21.58;;;;;;;10.58;75.38;100315.09;5053226;28;20044;-76
2022/11/22 07:14:30;;;;;;;31.05;17.27;;;;;;;10.89;75.15;100378.72;5051126;28;20047;-76
2022/11/22 07:16:55;;;;;;;34.03;19.48;;;;;;;10.77;74.47;100355.56;5051898;28;20451;-75
2022/11/22 07:19:21;;;;;;;30.30;20.00;;;;;;;10.67;74.14;100340.38;5053155;28;20112;-75
2022/11/22 07:21:48;;;;;;;31.88;19.73;;;;;;;10.80;74.06;100384.88;5053036;28;20053;-75
2022/11/22 07:24:13;;;;;;;30.45;19.40;;;;;;;10.55;74.34;100347.63;5050930;28;20072;-74
2022/11/22 07:26:39;;;;;;;34.10;19.67;;;;;;;10.75;74.32;100384.44;5053737;28;20060;-75
2022/11/22 07:29:04;;;;;;;34.88;20.50;;;;;;;10.74;74.30;100382.72;5068121;28;20059;-76
2022/11/22 07:31:30;;;;;;;33.83;18.70;;;;;;;10.32;73.88;100351.44;5067672;28;20025;-76
2022/11/22 07:33:56;;;;;;;33.50;19.73;;;;;;;10.50;73.01;100384.81;5063341;28;20037;-75
2022/11/22 07:36:22;;;;;;;44.47;22.10;;;;;;;10.50;73.54;100408.16;5053456;28;20036;-75
2022/11/22 07:38:48;;;;;;;28.48;19.30;;;;;;;10.50;74.25;100392.03;5052950;28;20025;-76
2022/11/22 07:41:15;;;;;;;33.70;19.52;;;;;;;10.56;73.78;100405.81;5052310;28;20076;-76
2022/11/22 07:43:41;;;;;;;27.10;17.98;;;;;;;10.52;73.91;100406.22;5052708;28;20029;-75
2022/11/22 07:46:29;;;;;;;32.15;17.95;;;;;;;10.60;74.66;100395.66;5052892;28;20036;-78
2022/11/22 07:48:56;;;;;;;35.40;18.85;;;;;;;10.69;74.58;100400.25;5057608;28;20041;-76
2022/11/22 07:51:21;;;;;;;32.78;20.08;;;;;;;10.75;74.60;100392.50;5057249;28;20029;-75
2022/11/22 07:53:47;;;;;;;38.00;20.05;;;;;;;10.90;74.30;100407.34;5053830;28;20078;-75
2022/11/22 07:56:13;;;;;;;31.58;17.73;;;;;;;10.99;73.48;100407.50;5052434;28;20472;-76
2022/11/22 07:58:38;;;;;;;23.50;16.33;;;;;;;11.12;72.92;100411.72;5052533;28;20494;-75
2022/11/22 08:01:07;;;;;;;31.77;18.88;;;;;;;11.04;74.13;100364.94;5052012;28;20036;-76
2022/11/22 08:03:33;;;;;;;26.90;17.38;;;;;;;11.38;73.65;100412.09;5049806;28;20059;-75
2022/11/22 08:06:03;;;;;;;23.55;16.45;;;;;;;11.21;73.38;100377.75;5052342;28;20109;-76
2022/11/22 08:08:29;;;;;;;25.48;17.75;;;;;;;11.05;72.83;100366.63;5052083;28;20496;-76
2022/11/22 08:10:54;;;;;;;23.77;16.08;;;;;;;11.27;73.25;100404.13;5052136;28;20032;-77
2022/11/22 08:13:20;;;;;;;26.42;17.13;;;;;;;11.18;72.03;100386.94;5050996;28;20500;-75
2022/11/22 08:15:48;;;;;;;29.25;17.85;;;;;;;11.32;71.15;100413.50;5052170;28;20029;-75
2022/11/22 08:18:14;;;;;;;27.95;17.92;;;;;;;11.29;71.64;100399.44;5053341;28;20060;-76
2022/11/22 08:20:39;;;;;;;24.48;16.63;;;;;;;11.45;71.38;100408.75;5052171;28;20029;-75
2022/11/22 08:23:05;;;;;;;24.83;17.77;;;;;;;11.55;69.95;100427.66;5051939;28;20404;-75
2022/11/22 08:25:30;;;;;;;25.73;17.60;;;;;;;11.49;69.00;100425.50;5052622;28;20029;-75
2022/11/22 08:27:56;;;;;;;25.55;16.00;;;;;;;11.60;68.88;100433.47;5055961;28;20025;-76
2022/11/22 08:30:21;;;;;;;22.50;16.52;;;;;;;11.75;68.03;100421.34;5052153;28;20032;-78
2022/11/22 08:32:46;;;;;;;25.10;16.20;;;;;;;11.78;69.61;100425.59;5051548;28;20028;-75
2022/11/22 08:35:12;;;;;;;26.00;15.68;;;;;;;11.80;68.57;100427.16;5051487;28;20017;-76
2022/11/22 08:37:38;;;;;;;26.58;17.55;;;;;;;11.88;68.29;100427.34;5051625;28;20033;-75
2022/11/22 08:40:04;;;;;;;29.58;18.38;;;;;;;12.07;67.71;100431.09;5051815;28;20029;-75
2022/11/22 08:42:29;;;;;;;24.13;16.13;;;;;;;12.15;69.42;100418.59;5050080;28;20159;-75
2022/11/22 08:44:55;;;;;;;30.13;17.63;;;;;;;12.23;70.13;100423.31;5051599;28;20025;-77
2022/11/22 08:47:20;;;;;;;26.02;16.38;;;;;;;12.15;67.81;100418.59;5051292;28;20037;-76
2022/11/22 08:49:46;;;;;;;25.98;15.75;;;;;;;12.16;67.17;100414.94;5051289;28;20049;-76
2022/11/22 08:52:11;;;;;;;19.30;13.68;;;;;;;12.02;66.68;100400.00;5051144;28;20029;-76
2022/11/22 08:54:37;;;;;;;22.58;14.88;;;;;;;12.19;66.67;100408.41;5050267;28;20028;-76
2022/11/22 08:57:02;;;;;;;20.98;15.00;;;;;;;12.29;66.11;100407.41;5055378;28;20029;-76
2022/11/22 08:59:28;;;;;;;20.20;14.38;;;;;;;12.46;67.06;100408.53;5055695;28;20437;-77
2022/11/22 09:01:53;;;;;;;25.48;15.25;;;;;;;12.17;64.90;100389.66;5052970;28;20086;-76
2022/11/22 09:04:18;;;;;;;20.85;14.57;;;;;;;12.35;65.10;100414.09;5051260;28;20033;-76
2022/11/22 09:06:44;;;;;;;30.92;15.52;;;;;;;12.44;65.35;100416.81;5051224;28;20029;-76
2022/11/22 09:09:09;;;;;;;30.40;16.67;;;;;;;12.36;65.60;100407.69;5051122;28;20032;-75
2022/11/22 09:11:35;;;;;;;25.80;16.05;;;;;;;12.40;65.03;100414.50;5051552;28;20021;-76
2022/11/22 09:14:00;;;;;;;28.50;17.10;;;;;;;12.14;66.14;100378.31;5049809;28;20028;-75
2022/11/22 09:16:27;;;;;;;28.67;17.13;;;;;;;12.29;65.82;100409.25;5050925;28;20055;-76
2022/11/22 09:18:53;;;;;;;25.90;14.88;;;;;;;12.22;65.67;100387.41;5050882;28;20090;-75
2022/11/22 09:21:19;;;;;;;28.50;16.00;;;;;;;12.26;65.71;100390.66;5050793;28;20108;-76
2022/11/22 09:23:47;;;;;;;31.63;15.68;;;;;;;12.27;65.03;100408.53;5050574;28;20112;-76
2022/11/22 09:26:15;;;;;;;27.88;16.38;;;;;;;12.17;64.92;100407.69;5050743;28;20029;-76
2022/11/22 09:28:41;;;;;;;22.33;13.93;;;;;;;12.17;66.43;100408.53;5050674;28;20097;-76
2022/11/22 09:31:11;;;;;;;33.03;15.18;;;;;;;12.02;65.45;100390.22;5049043;28;20025;-77
2022/11/22 09:33:38;;;;;;;33.00;16.73;;;;;;;11.98;66.01;100390.50;5050323;28;20499;-75
2022/11/22 09:36:06;;;;;;;23.42;16.23;;;;;;;12.14;65.76;100407.97;5050430;28;20025;-76
2022/11/22 09:38:33;;;;;;;25.30;14.07;;;;;;;12.22;65.80;100400.03;5050400;28;20036;-75
2022/11/22 09:41:02;;;;;;;29.48;17.23;;;;;;;12.29;65.63;100411.97;5049103;28;20037;-76
2022/11/22 09:43:41;;;;;;;24.35;15.60;;;;;;;12.33;66.33;100407.97;5048916;28;20032;-75
2022/11/22 09:46:15;;;;;;;22.13;12.80;;;;;;;12.35;65.75;100397.91;5050097;28;20025;-76
2022/11/22 09:48:52;;;;;;;20.25;12.77;;;;;;;12.51;65.60;100398.16;5050055;28;20045;-75
2022/11/22 09:51:23;;;;;;;23.30;12.25;;;;;;;12.53;64.65;100396.22;5051119;28;20025;-75
2022/11/22 09:54:00;;;;;;;39.25;24.27;;;;;;;12.49;63.50;100384.00;5052076;28;20078;-76
2022/11/22 09:56:27;;;;;;;15.55;11.80;;;;;;;12.30;64.17;100347.09;5050199;28;20017;-75
2022/11/22 09:59:25;;;;;;;20.98;11.55;;;;;;;12.60;63.35;100378.44;5050144;28;20147;-74
2022/11/22 10:02:00;;;;;;;16.40;10.05;;;;;;;12.62;62.75;100372.91;5048443;28;20123;-75
2022/11/22 10:04:36;;;;;;;17.33;11.48;;;;;;;12.54;62.29;100357.41;5052917;28;20488;-77
2022/11/22 10:07:11;;;;;;;17.98;11.60;;;;;;;12.74;63.54;100356.41;5055405;28;20025;-76
2022/11/22 10:09:55;;;;;;;21.50;12.98;;;;;;;12.73;63.87;100359.25;5054603;28;20028;-75
2022/11/22 10:12:28;;;;;;;22.90;13.40;;;;;;;12.74;63.28;100359.13;5050086;28;20021;-76
2022/11/22 10:14:56;;;;;;;29.98;14.68;;;;;;;12.81;61.58;100359.38;5049816;28;20033;-75
2022/11/22 10:17:31;;;;;;;20.40;13.07;;;;;;;12.71;62.46;100347.75;5049549;28;20485;-76
2022/11/22 10:20:15;;;;;;;20.38;13.60;;;;;;;12.90;62.38;100366.59;5050253;28;20036;-76
2022/11/22 10:22:40;;;;;;;30.42;16.52;;;;;;;12.98;62.66;100375.66;5050018;28;20036;-76
2022/11/22 10:25:13;;;;;;;21.00;14.20;;;;;;;12.97;62.50;100341.56;5049313;28;20025;-76
2022/11/22 10:27:40;;;;;;;15.80;11.63;;;;;;;13.31;61.97;100370.75;5050100;28;20532;-77
2022/11/22 10:30:13;;;;;;;22.25;12.18;;;;;;;13.34;62.08;100375.84;5049699;28;20021;-76
2022/11/22 10:32:58;;;;;;;15.25;10.13;;;;;;;13.36;60.01;100363.06;5048989;28;20082;-75
2022/11/22 10:35:32;;;;;;;16.38;9.27;;;;;;;13.41;59.52;100371.56;5049913;28;20037;-78
2022/11/22 10:38:35;;;;;;;26.10;9.38;;;;;;;13.37;57.65;100372.84;5050065;28;20029;-77
2022/11/22 10:41:22;;;;;;;15.30;9.80;;;;;;;13.34;57.98;100376.72;5050208;28;20444;-76
2022/11/22 10:44:03;;;;;;;20.08;10.32;;;;;;;13.37;58.98;100375.56;5049897;28;20032;-76
2022/11/22 10:46:57;;;;;;;21.88;9.70;;;;;;;13.13;57.69;100340.13;5049460;28;20037;-75
2022/11/22 10:50:07;;;;;;;16.60;10.65;;;;;;;13.45;57.88;100373.84;5049750;28;20166;-76
2022/11/22 10:52:47;;;;;;;13.23;8.48;;;;;;;13.63;58.20;100368.47;5007617;28;20041;-76
2022/11/22 10:55:35;;;;;;;12.93;8.75;;;;;;;13.84;56.93;100373.63;5007133;28;20030;-75
2022/11/22 10:58:49;;;;;;;14.38;9.07;;;;;;;13.93;56.25;100378.97;4948872;29;20039;-76
2022/11/22 11:01:30;;;;;;;13.30;8.38;;;;;;;13.94;54.95;100380.66;4895533;29;20047;-76
2022/11/22 11:04:01;;;;;;;14.65;9.15;;;;;;;14.04;55.01;100386.84;4911256;29;20059;-77
2022/11/22 11:06:33;;;;;;;20.20;8.98;;;;;;;14.13;54.64;100391.34;4912367;29;20043;-76
2022/11/22 11:09:11;;;;;;;15.07;8.45;;;;;;;14.27;53.36;100386.41;4911795;29;20096;-77
2022/11/22 11:11:39;;;;;;;18.38;9.98;;;;;;;14.42;53.89;100376.78;4912123;29;20032;-76
2022/11/22 11:14:20;;;;;;;23.05;12.23;;;;;;;14.52;54.09;100374.84;4914366;29;20170;-75
2022/11/22 11:16:48;;;;;;;18.27;10.63;;;;;;;14.56;53.22;100373.50;4913926;29;20040;-76
2022/11/22 11:19:17;;;;;;;21.83;12.23;;;;;;;14.45;53.40;100354.81;4911883;29;20123;-76
2022/11/22 11:21:42;;;;;;;17.20;11.10;;;;;;;14.55;53.05;100369.13;4911413;29;20111;-75
2022/11/22 11:24:13;;;;;;;22.92;11.35;;;;;;;14.59;52.65;100365.06;4961923;28;20048;-76
2022/11/22 11:26:41;;;;;;;27.95;13.32;;;;;;;14.64;53.12;100351.94;4968602;28;20119;-74
2022/11/22 11:29:30;;;;;;;21.45;12.73;;;;;;;14.78;53.25;100358.63;4968508;28;20039;-76
2022/11/22 11:32:11;;;;;;;23.33;11.43;;;;;;;14.77;51.62;100365.88;4910884;29;20044;-76